sensor_id;sensor_type;location;lat;lon;timestamp;P1;durP1;ratioP1;P2;durP2;ratioP2
54929;SDS011;40833;53.238;6.576;2023-02-20T00:01:30;11.17;;;5.83;;
54929;SDS011;40833;53.238;6.576;2023-02-20T00:03:56;13.83;;;6.43;;
54929;SDS011;40833;53.238;6.576;2023-02-20T00:06:21;12.00;;;6.73;;
54929;SDS011;40833;53.238;6.576;2023-02-20T00:08:47;13.93;;;7.03;;
54929;SDS011;40833;53.238;6.576;2023-02-20T00:11:13;12.97;;;6.83;;
54929;SDS011;40833;53.238;6.576;2023-02-20T00:13:43;13.80;;;6.83;;
54929;SDS011;40833;53.238;6.576;2023-02-20T00:16:10;12.18;;;6.82;;
54929;SDS011;40833;53.238;6.576;2023-02-20T00:18:36;12.20;;;7.70;;
54929;SDS011;40833;53.238;6.576;2023-02-20T00:21:01;15.00;;;7.87;;
54929;SDS011;40833;53.238;6.576;2023-02-20T00:23:31;15.17;;;8.10;;
54929;SDS011;40833;53.238;6.576;2023-02-20T00:25:57;17.20;;;8.50;;
54929;SDS011;40833;53.238;6.576;2023-02-20T00:28:22;20.70;;;10.47;;
54929;SDS011;40833;53.238;6.576;2023-02-20T00:30:48;20.63;;;9.80;;
54929;SDS011;40833;53.238;6.576;2023-02-20T00:33:13;18.27;;;11.10;;
54929;SDS011;40833;53.238;6.576;2023-02-20T00:35:39;18.50;;;10.93;;
54929;SDS011;40833;53.238;6.576;2023-02-20T00:38:05;20.13;;;11.17;;
54929;SDS011;40833;53.238;6.576;2023-02-20T00:40:30;20.63;;;12.13;;
54929;SDS011;40833;53.238;6.576;2023-02-20T00:42:56;21.13;;;12.43;;
54929;SDS011;40833;53.238;6.576;2023-02-20T00:45:22;20.37;;;13.70;;
54929;SDS011;40833;53.238;6.576;2023-02-20T00:47:47;24.63;;;13.67;;
54929;SDS011;40833;53.238;6.576;2023-02-20T00:50:14;22.13;;;14.13;;
54929;SDS011;40833;53.238;6.576;2023-02-20T00:52:40;22.80;;;15.43;;
54929;SDS011;40833;53.238;6.576;2023-02-20T00:55:06;22.83;;;14.47;;
54929;SDS011;40833;53.238;6.576;2023-02-20T00:57:32;25.60;;;16.17;;
54929;SDS011;40833;53.238;6.576;2023-02-20T00:59:58;27.93;;;15.07;;
54929;SDS011;40833;53.238;6.576;2023-02-20T01:02:23;23.73;;;15.53;;
54929;SDS011;40833;53.238;6.576;2023-02-20T01:04:49;26.80;;;15.87;;
54929;SDS011;40833;53.238;6.576;2023-02-20T01:07:15;26.37;;;17.33;;
54929;SDS011;40833;53.238;6.576;2023-02-20T01:09:41;19.73;;;14.77;;
54929;SDS011;40833;53.238;6.576;2023-02-20T01:12:07;23.30;;;15.37;;
54929;SDS011;40833;53.238;6.576;2023-02-20T01:14:33;24.50;;;14.60;;
54929;SDS011;40833;53.238;6.576;2023-02-20T01:16:58;24.73;;;15.60;;
54929;SDS011;40833;53.238;6.576;2023-02-20T01:19:24;22.40;;;15.23;;
54929;SDS011;40833;53.238;6.576;2023-02-20T01:21:50;25.30;;;14.60;;
54929;SDS011;40833;53.238;6.576;2023-02-20T01:24:16;29.90;;;15.80;;
54929;SDS011;40833;53.238;6.576;2023-02-20T01:26:43;22.63;;;16.07;;
54929;SDS011;40833;53.238;6.576;2023-02-20T01:29:09;18.17;;;13.70;;
54929;SDS011;40833;53.238;6.576;2023-02-20T01:31:36;27.10;;;15.57;;
54929;SDS011;40833;53.238;6.576;2023-02-20T01:34:01;20.27;;;14.07;;
54929;SDS011;40833;53.238;6.576;2023-02-20T01:36:27;23.77;;;14.63;;
54929;SDS011;40833;53.238;6.576;2023-02-20T01:38:53;24.17;;;15.10;;
54929;SDS011;40833;53.238;6.576;2023-02-20T01:41:19;22.10;;;12.90;;
54929;SDS011;40833;53.238;6.576;2023-02-20T01:43:45;20.80;;;13.60;;
54929;SDS011;40833;53.238;6.576;2023-02-20T01:49:17;27.50;;;14.27;;
54929;SDS011;40833;53.238;6.576;2023-02-20T01:51:48;17.90;;;12.23;;
54929;SDS011;40833;53.238;6.576;2023-02-20T01:54:36;19.20;;;13.00;;
54929;SDS011;40833;53.238;6.576;2023-02-20T01:57:05;21.67;;;12.93;;
54929;SDS011;40833;53.238;6.576;2023-02-20T01:59:34;26.90;;;13.47;;
54929;SDS011;40833;53.238;6.576;2023-02-20T02:02:04;17.77;;;12.10;;
54929;SDS011;40833;53.238;6.576;2023-02-20T02:04:30;23.67;;;11.97;;
54929;SDS011;40833;53.238;6.576;2023-02-20T02:06:58;20.53;;;12.57;;
54929;SDS011;40833;53.238;6.576;2023-02-20T02:12:01;24.43;;;13.03;;
54929;SDS011;40833;53.238;6.576;2023-02-20T02:14:27;21.73;;;12.20;;
54929;SDS011;40833;53.238;6.576;2023-02-20T02:23:01;24.10;;;11.80;;
54929;SDS011;40833;53.238;6.576;2023-02-20T02:37:02;24.60;;;12.80;;
54929;SDS011;40833;53.238;6.576;2023-02-20T02:39:52;24.67;;;12.23;;
54929;SDS011;40833;53.238;6.576;2023-02-20T02:45:16;20.40;;;11.43;;
54929;SDS011;40833;53.238;6.576;2023-02-20T02:50:26;25.67;;;12.47;;
54929;SDS011;40833;53.238;6.576;2023-02-20T02:52:57;21.58;;;11.35;;
54929;SDS011;40833;53.238;6.576;2023-02-20T02:55:24;30.30;;;12.83;;
54929;SDS011;40833;53.238;6.576;2023-02-20T02:57:51;25.67;;;12.33;;
54929;SDS011;40833;53.238;6.576;2023-02-20T03:02:56;19.40;;;12.27;;
54929;SDS011;40833;53.238;6.576;2023-02-20T03:05:34;25.17;;;11.90;;
54929;SDS011;40833;53.238;6.576;2023-02-20T03:08:38;23.43;;;13.80;;
54929;SDS011;40833;53.238;6.576;2023-02-20T03:11:15;28.00;;;13.23;;
54929;SDS011;40833;53.238;6.576;2023-02-20T03:16:55;27.93;;;14.33;;
54929;SDS011;40833;53.238;6.576;2023-02-20T03:19:47;36.20;;;14.00;;
54929;SDS011;40833;53.238;6.576;2023-02-20T03:24:49;28.92;;;13.55;;
54929;SDS011;40833;53.238;6.576;2023-02-20T03:30:03;30.48;;;14.10;;
54929;SDS011;40833;53.238;6.576;2023-02-20T03:32:33;28.93;;;13.50;;
54929;SDS011;40833;53.238;6.576;2023-02-20T03:35:19;33.50;;;13.60;;
54929;SDS011;40833;53.238;6.576;2023-02-20T03:38:07;29.67;;;13.90;;
54929;SDS011;40833;53.238;6.576;2023-02-20T03:40:53;30.57;;;15.33;;
54929;SDS011;40833;53.238;6.576;2023-02-20T03:43:39;31.43;;;13.10;;
54929;SDS011;40833;53.238;6.576;2023-02-20T03:46:08;30.93;;;13.60;;
54929;SDS011;40833;53.238;6.576;2023-02-20T03:48:45;32.67;;;14.67;;
54929;SDS011;40833;53.238;6.576;2023-02-20T03:51:17;30.07;;;12.90;;
54929;SDS011;40833;53.238;6.576;2023-02-20T03:53:43;25.07;;;13.27;;
54929;SDS011;40833;53.238;6.576;2023-02-20T03:56:12;28.30;;;13.70;;
54929;SDS011;40833;53.238;6.576;2023-02-20T03:58:44;36.63;;;14.40;;
54929;SDS011;40833;53.238;6.576;2023-02-20T04:01:13;32.90;;;13.10;;
54929;SDS011;40833;53.238;6.576;2023-02-20T04:03:43;27.87;;;13.10;;
54929;SDS011;40833;53.238;6.576;2023-02-20T04:06:12;28.30;;;13.70;;
54929;SDS011;40833;53.238;6.576;2023-02-20T04:08:41;42.53;;;14.23;;
54929;SDS011;40833;53.238;6.576;2023-02-20T04:11:57;39.73;;;14.53;;
54929;SDS011;40833;53.238;6.576;2023-02-20T04:14:02;30.20;;;12.23;;
54929;SDS011;40833;53.238;6.576;2023-02-20T04:16:29;39.83;;;14.07;;
54929;SDS011;40833;53.238;6.576;2023-02-20T04:19:00;41.17;;;13.80;;
54929;SDS011;40833;53.238;6.576;2023-02-20T04:21:31;28.83;;;11.60;;
54929;SDS011;40833;53.238;6.576;2023-02-20T04:24:08;36.60;;;11.43;;
54929;SDS011;40833;53.238;6.576;2023-02-20T04:26:38;37.33;;;12.30;;
54929;SDS011;40833;53.238;6.576;2023-02-20T04:29:04;38.60;;;11.63;;
54929;SDS011;40833;53.238;6.576;2023-02-20T04:31:31;31.27;;;11.50;;
54929;SDS011;40833;53.238;6.576;2023-02-20T04:33:57;42.53;;;13.23;;
54929;SDS011;40833;53.238;6.576;2023-02-20T04:36:23;37.53;;;15.00;;
54929;SDS011;40833;53.238;6.576;2023-02-20T04:38:49;36.43;;;13.90;;
54929;SDS011;40833;53.238;6.576;2023-02-20T04:41:15;38.80;;;12.60;;
54929;SDS011;40833;53.238;6.576;2023-02-20T04:43:41;36.97;;;12.67;;
54929;SDS011;40833;53.238;6.576;2023-02-20T04:46:06;37.37;;;13.83;;
54929;SDS011;40833;53.238;6.576;2023-02-20T04:48:32;41.50;;;12.73;;
54929;SDS011;40833;53.238;6.576;2023-02-20T04:50:58;31.17;;;12.77;;
54929;SDS011;40833;53.238;6.576;2023-02-20T04:53:23;33.23;;;12.27;;
54929;SDS011;40833;53.238;6.576;2023-02-20T04:55:49;32.47;;;11.57;;
54929;SDS011;40833;53.238;6.576;2023-02-20T04:58:15;36.10;;;12.83;;
54929;SDS011;40833;53.238;6.576;2023-02-20T05:00:40;38.30;;;12.60;;
54929;SDS011;40833;53.238;6.576;2023-02-20T05:03:06;32.30;;;11.37;;
54929;SDS011;40833;53.238;6.576;2023-02-20T05:05:32;33.30;;;13.57;;
54929;SDS011;40833;53.238;6.576;2023-02-20T05:07:58;34.63;;;11.10;;
54929;SDS011;40833;53.238;6.576;2023-02-20T05:10:29;37.13;;;11.13;;
54929;SDS011;40833;53.238;6.576;2023-02-20T05:12:56;37.67;;;11.73;;
54929;SDS011;40833;53.238;6.576;2023-02-20T05:15:23;30.03;;;11.73;;
54929;SDS011;40833;53.238;6.576;2023-02-20T05:17:49;39.73;;;11.40;;
54929;SDS011;40833;53.238;6.576;2023-02-20T05:20:16;25.00;;;10.00;;
54929;SDS011;40833;53.238;6.576;2023-02-20T05:22:46;33.10;;;11.50;;
54929;SDS011;40833;53.238;6.576;2023-02-20T05:25:13;33.00;;;10.90;;
54929;SDS011;40833;53.238;6.576;2023-02-20T05:27:39;27.57;;;11.33;;
54929;SDS011;40833;53.238;6.576;2023-02-20T05:30:07;32.30;;;10.43;;
54929;SDS011;40833;53.238;6.576;2023-02-20T05:32:33;35.13;;;11.37;;
54929;SDS011;40833;53.238;6.576;2023-02-20T05:34:59;44.73;;;11.40;;
54929;SDS011;40833;53.238;6.576;2023-02-20T05:37:25;34.43;;;10.87;;
54929;SDS011;40833;53.238;6.576;2023-02-20T05:39:51;35.13;;;11.17;;
54929;SDS011;40833;53.238;6.576;2023-02-20T05:42:17;36.80;;;10.60;;
54929;SDS011;40833;53.238;6.576;2023-02-20T05:44:45;48.23;;;11.57;;
54929;SDS011;40833;53.238;6.576;2023-02-20T05:47:11;36.10;;;11.03;;
54929;SDS011;40833;53.238;6.576;2023-02-20T05:49:37;38.47;;;11.30;;
54929;SDS011;40833;53.238;6.576;2023-02-20T05:52:03;33.57;;;11.13;;
54929;SDS011;40833;53.238;6.576;2023-02-20T05:54:35;40.97;;;11.27;;
54929;SDS011;40833;53.238;6.576;2023-02-20T05:57:02;35.70;;;11.30;;
54929;SDS011;40833;53.238;6.576;2023-02-20T05:59:28;31.00;;;9.73;;
54929;SDS011;40833;53.238;6.576;2023-02-20T06:01:57;36.13;;;10.27;;
54929;SDS011;40833;53.238;6.576;2023-02-20T06:04:23;36.77;;;10.20;;
54929;SDS011;40833;53.238;6.576;2023-02-20T06:06:49;30.17;;;9.20;;
54929;SDS011;40833;53.238;6.576;2023-02-20T06:09:15;29.87;;;9.47;;
54929;SDS011;40833;53.238;6.576;2023-02-20T06:11:46;29.30;;;9.57;;
54929;SDS011;40833;53.238;6.576;2023-02-20T06:14:14;33.40;;;9.95;;
54929;SDS011;40833;53.238;6.576;2023-02-20T06:16:41;29.57;;;9.87;;
54929;SDS011;40833;53.238;6.576;2023-02-20T06:19:06;30.70;;;9.83;;
54929;SDS011;40833;53.238;6.576;2023-02-20T06:21:32;36.27;;;10.40;;
54929;SDS011;40833;53.238;6.576;2023-02-20T06:24:00;26.03;;;8.07;;
54929;SDS011;40833;53.238;6.576;2023-02-20T06:26:26;26.67;;;8.23;;
54929;SDS011;40833;53.238;6.576;2023-02-20T06:28:51;23.80;;;7.77;;
54929;SDS011;40833;53.238;6.576;2023-02-20T06:31:22;25.73;;;7.97;;
54929;SDS011;40833;53.238;6.576;2023-02-20T06:33:49;26.60;;;8.87;;
54929;SDS011;40833;53.238;6.576;2023-02-20T06:36:20;26.70;;;8.10;;
54929;SDS011;40833;53.238;6.576;2023-02-20T06:38:47;20.65;;;7.82;;
54929;SDS011;40833;53.238;6.576;2023-02-20T06:41:13;25.70;;;7.00;;
54929;SDS011;40833;53.238;6.576;2023-02-20T06:43:38;27.70;;;8.60;;
54929;SDS011;40833;53.238;6.576;2023-02-20T06:46:04;27.47;;;8.33;;
54929;SDS011;40833;53.238;6.576;2023-02-20T06:48:30;31.93;;;9.07;;
54929;SDS011;40833;53.238;6.576;2023-02-20T06:50:55;34.00;;;8.27;;
54929;SDS011;40833;53.238;6.576;2023-02-20T06:53:21;31.27;;;7.30;;
54929;SDS011;40833;53.238;6.576;2023-02-20T06:55:47;25.27;;;6.83;;
54929;SDS011;40833;53.238;6.576;2023-02-20T06:58:13;22.83;;;8.10;;
54929;SDS011;40833;53.238;6.576;2023-02-20T07:00:38;29.70;;;7.47;;
54929;SDS011;40833;53.238;6.576;2023-02-20T07:03:04;26.20;;;8.27;;
54929;SDS011;40833;53.238;6.576;2023-02-20T07:05:30;21.30;;;7.17;;
54929;SDS011;40833;53.238;6.576;2023-02-20T07:07:55;25.00;;;8.00;;
54929;SDS011;40833;53.238;6.576;2023-02-20T07:10:21;23.67;;;7.87;;
54929;SDS011;40833;53.238;6.576;2023-02-20T07:12:47;27.40;;;8.07;;
54929;SDS011;40833;53.238;6.576;2023-02-20T07:15:12;25.23;;;8.90;;
54929;SDS011;40833;53.238;6.576;2023-02-20T07:17:38;24.17;;;7.90;;
54929;SDS011;40833;53.238;6.576;2023-02-20T07:20:04;28.93;;;8.37;;
54929;SDS011;40833;53.238;6.576;2023-02-20T07:22:31;23.60;;;7.73;;
54929;SDS011;40833;53.238;6.576;2023-02-20T07:24:56;31.87;;;8.20;;
54929;SDS011;40833;53.238;6.576;2023-02-20T07:27:22;23.73;;;7.83;;
54929;SDS011;40833;53.238;6.576;2023-02-20T07:29:48;24.60;;;7.90;;
54929;SDS011;40833;53.238;6.576;2023-02-20T07:32:15;20.23;;;7.67;;
54929;SDS011;40833;53.238;6.576;2023-02-20T07:34:45;17.80;;;7.20;;
54929;SDS011;40833;53.238;6.576;2023-02-20T07:37:12;14.97;;;6.63;;
54929;SDS011;40833;53.238;6.576;2023-02-20T07:39:38;17.23;;;6.93;;
54929;SDS011;40833;53.238;6.576;2023-02-20T07:42:04;20.03;;;7.20;;
54929;SDS011;40833;53.238;6.576;2023-02-20T07:44:29;22.60;;;7.93;;
54929;SDS011;40833;53.238;6.576;2023-02-20T07:46:55;19.60;;;7.33;;
54929;SDS011;40833;53.238;6.576;2023-02-20T07:49:21;34.57;;;7.37;;
54929;SDS011;40833;53.238;6.576;2023-02-20T07:51:46;19.30;;;6.73;;
54929;SDS011;40833;53.238;6.576;2023-02-20T07:54:12;25.43;;;7.97;;
54929;SDS011;40833;53.238;6.576;2023-02-20T07:56:39;21.63;;;7.90;;
54929;SDS011;40833;53.238;6.576;2023-02-20T07:59:05;24.10;;;7.40;;
54929;SDS011;40833;53.238;6.576;2023-02-20T08:01:31;19.83;;;6.50;;
54929;SDS011;40833;53.238;6.576;2023-02-20T08:03:57;16.93;;;6.47;;
54929;SDS011;40833;53.238;6.576;2023-02-20T08:06:23;20.40;;;7.70;;
54929;SDS011;40833;53.238;6.576;2023-02-20T08:08:48;19.77;;;7.27;;
54929;SDS011;40833;53.238;6.576;2023-02-20T08:11:18;28.40;;;7.47;;
54929;SDS011;40833;53.238;6.576;2023-02-20T08:13:46;23.40;;;6.37;;
54929;SDS011;40833;53.238;6.576;2023-02-20T08:16:12;19.20;;;6.20;;
54929;SDS011;40833;53.238;6.576;2023-02-20T08:18:38;24.50;;;8.83;;
54929;SDS011;40833;53.238;6.576;2023-02-20T08:21:03;20.73;;;6.40;;
54929;SDS011;40833;53.238;6.576;2023-02-20T08:23:29;18.10;;;6.30;;
54929;SDS011;40833;53.238;6.576;2023-02-20T08:25:55;14.40;;;6.17;;
54929;SDS011;40833;53.238;6.576;2023-02-20T08:28:21;16.77;;;6.27;;
54929;SDS011;40833;53.238;6.576;2023-02-20T08:30:47;14.97;;;6.13;;
54929;SDS011;40833;53.238;6.576;2023-02-20T08:33:13;24.37;;;7.30;;
54929;SDS011;40833;53.238;6.576;2023-02-20T08:35:39;24.80;;;6.73;;
54929;SDS011;40833;53.238;6.576;2023-02-20T08:38:06;18.87;;;7.03;;
54929;SDS011;40833;53.238;6.576;2023-02-20T08:40:46;18.10;;;6.53;;
54929;SDS011;40833;53.238;6.576;2023-02-20T08:43:11;18.57;;;7.37;;
54929;SDS011;40833;53.238;6.576;2023-02-20T08:45:37;13.93;;;6.00;;
54929;SDS011;40833;53.238;6.576;2023-02-20T08:48:03;20.00;;;7.10;;
54929;SDS011;40833;53.238;6.576;2023-02-20T08:50:28;22.07;;;6.90;;
54929;SDS011;40833;53.238;6.576;2023-02-20T08:52:54;18.33;;;6.97;;
54929;SDS011;40833;53.238;6.576;2023-02-20T08:55:20;25.67;;;8.23;;
54929;SDS011;40833;53.238;6.576;2023-02-20T08:57:45;23.20;;;7.03;;
54929;SDS011;40833;53.238;6.576;2023-02-20T09:00:13;19.67;;;6.40;;
54929;SDS011;40833;53.238;6.576;2023-02-20T09:02:40;18.60;;;6.30;;
54929;SDS011;40833;53.238;6.576;2023-02-20T09:05:06;19.63;;;7.00;;
54929;SDS011;40833;53.238;6.576;2023-02-20T09:07:32;18.53;;;6.10;;
54929;SDS011;40833;53.238;6.576;2023-02-20T09:09:58;19.17;;;6.37;;
54929;SDS011;40833;53.238;6.576;2023-02-20T09:12:23;17.97;;;6.77;;
54929;SDS011;40833;53.238;6.576;2023-02-20T09:14:49;20.83;;;6.73;;
54929;SDS011;40833;53.238;6.576;2023-02-20T09:17:15;18.17;;;6.13;;
54929;SDS011;40833;53.238;6.576;2023-02-20T09:19:41;23.07;;;6.93;;
54929;SDS011;40833;53.238;6.576;2023-02-20T09:22:07;17.40;;;6.30;;
54929;SDS011;40833;53.238;6.576;2023-02-20T09:24:33;20.77;;;7.17;;
54929;SDS011;40833;53.238;6.576;2023-02-20T09:27:00;21.83;;;6.00;;
54929;SDS011;40833;53.238;6.576;2023-02-20T09:29:30;14.60;;;5.93;;
54929;SDS011;40833;53.238;6.576;2023-02-20T09:31:56;18.87;;;6.40;;
54929;SDS011;40833;53.238;6.576;2023-02-20T09:34:22;13.60;;;5.93;;
54929;SDS011;40833;53.238;6.576;2023-02-20T09:36:48;14.87;;;5.87;;
54929;SDS011;40833;53.238;6.576;2023-02-20T09:39:14;19.63;;;6.37;;
54929;SDS011;40833;53.238;6.576;2023-02-20T09:44:37;15.53;;;5.50;;
54929;SDS011;40833;53.238;6.576;2023-02-20T09:49:45;17.90;;;6.50;;
54929;SDS011;40833;53.238;6.576;2023-02-20T09:52:12;24.87;;;5.57;;
54929;SDS011;40833;53.238;6.576;2023-02-20T09:54:41;15.53;;;5.57;;
54929;SDS011;40833;53.238;6.576;2023-02-20T09:57:12;15.57;;;5.60;;
54929;SDS011;40833;53.238;6.576;2023-02-20T10:03:05;21.53;;;6.40;;
54929;SDS011;40833;53.238;6.576;2023-02-20T10:05:33;19.00;;;7.17;;
54929;SDS011;40833;53.238;6.576;2023-02-20T10:08:00;17.43;;;6.50;;
54929;SDS011;40833;53.238;6.576;2023-02-20T10:10:27;20.40;;;6.87;;
54929;SDS011;40833;53.238;6.576;2023-02-20T10:18:44;14.80;;;5.87;;
54929;SDS011;40833;53.238;6.576;2023-02-20T10:24:27;17.90;;;5.40;;
54929;SDS011;40833;53.238;6.576;2023-02-20T10:27:11;19.57;;;7.53;;
54929;SDS011;40833;53.238;6.576;2023-02-20T10:29:40;13.27;;;6.40;;
54929;SDS011;40833;53.238;6.576;2023-02-20T10:32:10;21.90;;;6.03;;
54929;SDS011;40833;53.238;6.576;2023-02-20T10:34:46;25.07;;;6.63;;
54929;SDS011;40833;53.238;6.576;2023-02-20T10:37:19;17.10;;;5.70;;
54929;SDS011;40833;53.238;6.576;2023-02-20T10:39:49;19.00;;;6.28;;
54929;SDS011;40833;53.238;6.576;2023-02-20T10:42:23;24.37;;;6.67;;
54929;SDS011;40833;53.238;6.576;2023-02-20T10:44:52;20.20;;;5.83;;
54929;SDS011;40833;53.238;6.576;2023-02-20T10:47:29;18.53;;;5.90;;
54929;SDS011;40833;53.238;6.576;2023-02-20T10:50:24;12.15;;;5.00;;
54929;SDS011;40833;53.238;6.576;2023-02-20T10:55:43;19.77;;;6.05;;
54929;SDS011;40833;53.238;6.576;2023-02-20T11:00:55;17.70;;;5.60;;
54929;SDS011;40833;53.238;6.576;2023-02-20T11:06:31;14.37;;;4.80;;
54929;SDS011;40833;53.238;6.576;2023-02-20T11:09:00;24.37;;;5.47;;
54929;SDS011;40833;53.238;6.576;2023-02-20T11:14:00;15.23;;;5.30;;
54929;SDS011;40833;53.238;6.576;2023-02-20T11:16:37;21.30;;;5.87;;
54929;SDS011;40833;53.238;6.576;2023-02-20T11:19:27;13.40;;;4.90;;
54929;SDS011;40833;53.238;6.576;2023-02-20T11:21:58;18.17;;;5.40;;
54929;SDS011;40833;53.238;6.576;2023-02-20T11:26:59;14.93;;;5.20;;
54929;SDS011;40833;53.238;6.576;2023-02-20T11:30:02;15.93;;;4.97;;
54929;SDS011;40833;53.238;6.576;2023-02-20T11:32:40;17.70;;;4.50;;
54929;SDS011;40833;53.238;6.576;2023-02-20T11:35:14;12.63;;;4.47;;
54929;SDS011;40833;53.238;6.576;2023-02-20T11:37:48;19.53;;;5.03;;
54929;SDS011;40833;53.238;6.576;2023-02-20T11:40:32;15.70;;;5.77;;
54929;SDS011;40833;53.238;6.576;2023-02-20T11:45:43;13.60;;;4.33;;
54929;SDS011;40833;53.238;6.576;2023-02-20T11:48:16;18.67;;;5.33;;
54929;SDS011;40833;53.238;6.576;2023-02-20T11:50:46;16.53;;;5.00;;
54929;SDS011;40833;53.238;6.576;2023-02-20T11:53:18;14.57;;;4.87;;
54929;SDS011;40833;53.238;6.576;2023-02-20T11:55:47;12.68;;;4.55;;
54929;SDS011;40833;53.238;6.576;2023-02-20T11:58:23;13.83;;;4.67;;
54929;SDS011;40833;53.238;6.576;2023-02-20T12:00:51;16.00;;;4.27;;
54929;SDS011;40833;53.238;6.576;2023-02-20T12:05:55;13.07;;;4.70;;
54929;SDS011;40833;53.238;6.576;2023-02-20T12:13:45;12.67;;;4.77;;
54929;SDS011;40833;53.238;6.576;2023-02-20T12:27:09;14.90;;;4.60;;
54929;SDS011;40833;53.238;6.576;2023-02-20T12:29:54;12.13;;;3.40;;
54929;SDS011;40833;53.238;6.576;2023-02-20T12:33:13;16.77;;;4.77;;
54929;SDS011;40833;53.238;6.576;2023-02-20T12:38:11;15.37;;;4.47;;
54929;SDS011;40833;53.238;6.576;2023-02-20T12:41:09;22.53;;;4.40;;
54929;SDS011;40833;53.238;6.576;2023-02-20T12:43:45;19.60;;;4.57;;
54929;SDS011;40833;53.238;6.576;2023-02-20T12:46:20;12.23;;;4.20;;
54929;SDS011;40833;53.238;6.576;2023-02-20T13:00:34;18.20;;;5.10;;
54929;SDS011;40833;53.238;6.576;2023-02-20T13:05:29;15.80;;;3.87;;
54929;SDS011;40833;53.238;6.576;2023-02-20T13:08:32;15.53;;;4.10;;
54929;SDS011;40833;53.238;6.576;2023-02-20T13:16:54;18.63;;;4.50;;
54929;SDS011;40833;53.238;6.576;2023-02-20T13:19:57;19.50;;;4.67;;
54929;SDS011;40833;53.238;6.576;2023-02-20T13:23:04;19.10;;;4.10;;
54929;SDS011;40833;53.238;6.576;2023-02-20T13:25:41;16.20;;;4.80;;
54929;SDS011;40833;53.238;6.576;2023-02-20T13:31:55;12.43;;;4.40;;
54929;SDS011;40833;53.238;6.576;2023-02-20T13:34:28;18.17;;;4.63;;
54929;SDS011;40833;53.238;6.576;2023-02-20T13:36:56;13.60;;;4.60;;
54929;SDS011;40833;53.238;6.576;2023-02-20T13:39:31;20.30;;;4.97;;
54929;SDS011;40833;53.238;6.576;2023-02-20T13:42:42;12.47;;;4.90;;
54929;SDS011;40833;53.238;6.576;2023-02-20T13:44:50;17.33;;;4.30;;
54929;SDS011;40833;53.238;6.576;2023-02-20T13:57:50;20.40;;;4.93;;
54929;SDS011;40833;53.238;6.576;2023-02-20T14:02:53;15.40;;;4.70;;
54929;SDS011;40833;53.238;6.576;2023-02-20T14:05:29;17.60;;;5.10;;
54929;SDS011;40833;53.238;6.576;2023-02-20T14:07:56;15.70;;;4.80;;
54929;SDS011;40833;53.238;6.576;2023-02-20T14:13:03;10.87;;;4.13;;
54929;SDS011;40833;53.238;6.576;2023-02-20T14:15:48;18.77;;;5.07;;
54929;SDS011;40833;53.238;6.576;2023-02-20T14:18:26;20.85;;;4.70;;
54929;SDS011;40833;53.238;6.576;2023-02-20T14:21:18;13.03;;;4.50;;
54929;SDS011;40833;53.238;6.576;2023-02-20T14:23:47;19.73;;;5.67;;
54929;SDS011;40833;53.238;6.576;2023-02-20T14:26:24;19.70;;;5.30;;
54929;SDS011;40833;53.238;6.576;2023-02-20T14:28:54;14.03;;;4.47;;
54929;SDS011;40833;53.238;6.576;2023-02-20T14:31:34;18.00;;;4.57;;
54929;SDS011;40833;53.238;6.576;2023-02-20T14:34:06;15.13;;;4.53;;
54929;SDS011;40833;53.238;6.576;2023-02-20T14:39:43;12.97;;;4.40;;
54929;SDS011;40833;53.238;6.576;2023-02-20T14:42:24;13.30;;;4.20;;
54929;SDS011;40833;53.238;6.576;2023-02-20T14:44:57;12.63;;;4.17;;
54929;SDS011;40833;53.238;6.576;2023-02-20T14:47:26;14.23;;;4.67;;
54929;SDS011;40833;53.238;6.576;2023-02-20T14:49:53;16.57;;;5.17;;
54929;SDS011;40833;53.238;6.576;2023-02-20T14:52:31;16.67;;;4.53;;
54929;SDS011;40833;53.238;6.576;2023-02-20T14:57:27;16.53;;;4.73;;
54929;SDS011;40833;53.238;6.576;2023-02-20T15:02:59;17.03;;;4.80;;
54929;SDS011;40833;53.238;6.576;2023-02-20T15:05:27;14.90;;;4.23;;
54929;SDS011;40833;53.238;6.576;2023-02-20T15:08:03;12.40;;;4.73;;
54929;SDS011;40833;53.238;6.576;2023-02-20T15:10:41;13.20;;;4.60;;
54929;SDS011;40833;53.238;6.576;2023-02-20T15:13:10;12.60;;;4.07;;
54929;SDS011;40833;53.238;6.576;2023-02-20T15:15:43;12.53;;;4.23;;
54929;SDS011;40833;53.238;6.576;2023-02-20T15:18:12;17.48;;;4.25;;
54929;SDS011;40833;53.238;6.576;2023-02-20T15:20:45;16.10;;;4.77;;
54929;SDS011;40833;53.238;6.576;2023-02-20T15:25:42;15.33;;;4.20;;
54929;SDS011;40833;53.238;6.576;2023-02-20T15:28:10;12.93;;;4.20;;
54929;SDS011;40833;53.238;6.576;2023-02-20T15:33:25;15.27;;;3.93;;
54929;SDS011;40833;53.238;6.576;2023-02-20T15:35:51;11.87;;;4.17;;
54929;SDS011;40833;53.238;6.576;2023-02-20T15:38:17;12.13;;;3.97;;
54929;SDS011;40833;53.238;6.576;2023-02-20T15:40:43;14.93;;;4.13;;
54929;SDS011;40833;53.238;6.576;2023-02-20T15:43:11;12.87;;;4.10;;
54929;SDS011;40833;53.238;6.576;2023-02-20T15:45:38;19.13;;;4.57;;
54929;SDS011;40833;53.238;6.576;2023-02-20T15:48:05;15.93;;;3.90;;
54929;SDS011;40833;53.238;6.576;2023-02-20T15:50:32;13.37;;;4.00;;
54929;SDS011;40833;53.238;6.576;2023-02-20T15:52:58;13.43;;;4.10;;
54929;SDS011;40833;53.238;6.576;2023-02-20T15:55:26;19.60;;;4.10;;
54929;SDS011;40833;53.238;6.576;2023-02-20T15:57:55;20.50;;;4.33;;
54929;SDS011;40833;53.238;6.576;2023-02-20T16:00:26;11.63;;;3.70;;
54929;SDS011;40833;53.238;6.576;2023-02-20T16:02:56;13.27;;;4.37;;
54929;SDS011;40833;53.238;6.576;2023-02-20T16:05:23;19.00;;;4.87;;
54929;SDS011;40833;53.238;6.576;2023-02-20T16:07:49;21.50;;;4.73;;
54929;SDS011;40833;53.238;6.576;2023-02-20T16:10:16;18.77;;;4.27;;
54929;SDS011;40833;53.238;6.576;2023-02-20T16:12:43;14.53;;;4.30;;
54929;SDS011;40833;53.238;6.576;2023-02-20T16:15:19;12.17;;;4.00;;
54929;SDS011;40833;53.238;6.576;2023-02-20T16:17:49;13.47;;;4.47;;
54929;SDS011;40833;53.238;6.576;2023-02-20T16:20:22;19.53;;;3.83;;
54929;SDS011;40833;53.238;6.576;2023-02-20T16:22:49;20.43;;;4.33;;
54929;SDS011;40833;53.238;6.576;2023-02-20T16:25:16;14.93;;;4.23;;
54929;SDS011;40833;53.238;6.576;2023-02-20T16:27:43;12.20;;;4.17;;
54929;SDS011;40833;53.238;6.576;2023-02-20T16:30:20;19.13;;;5.13;;
54929;SDS011;40833;53.238;6.576;2023-02-20T16:33:19;17.43;;;4.10;;
54929;SDS011;40833;53.238;6.576;2023-02-20T16:35:46;16.53;;;4.03;;
54929;SDS011;40833;53.238;6.576;2023-02-20T16:38:13;16.80;;;4.10;;
54929;SDS011;40833;53.238;6.576;2023-02-20T16:40:39;16.83;;;4.77;;
54929;SDS011;40833;53.238;6.576;2023-02-20T16:43:05;17.60;;;4.10;;
54929;SDS011;40833;53.238;6.576;2023-02-20T16:45:31;16.47;;;4.10;;
54929;SDS011;40833;53.238;6.576;2023-02-20T16:47:57;16.60;;;4.40;;
54929;SDS011;40833;53.238;6.576;2023-02-20T16:50:24;9.87;;;3.67;;
54929;SDS011;40833;53.238;6.576;2023-02-20T16:52:54;14.67;;;4.07;;
54929;SDS011;40833;53.238;6.576;2023-02-20T16:55:23;10.53;;;3.90;;
54929;SDS011;40833;53.238;6.576;2023-02-20T16:58:00;15.23;;;4.50;;
54929;SDS011;40833;53.238;6.576;2023-02-20T17:00:30;17.27;;;4.77;;
54929;SDS011;40833;53.238;6.576;2023-02-20T17:02:58;16.15;;;4.75;;
54929;SDS011;40833;53.238;6.576;2023-02-20T17:05:26;21.60;;;5.07;;
54929;SDS011;40833;53.238;6.576;2023-02-20T17:07:54;18.53;;;4.63;;
54929;SDS011;40833;53.238;6.576;2023-02-20T17:10:20;18.70;;;4.20;;
54929;SDS011;40833;53.238;6.576;2023-02-20T17:12:46;13.40;;;3.97;;
54929;SDS011;40833;53.238;6.576;2023-02-20T17:15:13;17.17;;;5.17;;